Snowdrift, Canada
Current Conditions -  °F | °C
As of 2:00 PM on Saturday 22 Nov 2014 (Local Time) from CYZF Reporting Station
Broken Clouds Broken Clouds  
Wind Chill: -23°   Ceiling: 24000
Heat Index: -11°   Visibility: 15mi
Dew Point: -17°   Wind: 5mph
Humidity: 77%   Direction: 350°N
Pressure: 29.85"   Gusts: NA
Location:  62.41°N, 110.72°W
Report Text: CYZF 222100Z 35004KT 15SM SCT140 BKN240 M24/M27 A2985 RMK AC3CI2 SLP140
Loading
Personal Weather Stations






























Interactive Weather Map New forecast layout! Learn more

10-Day Weather Forecast

Advertisements
Track Severe Weather on mobile